CIET2: Wichita River Nr Charlie, TX

Data processed at Thu Jan 04 2018 23:56


All information presented herein is the property of the government of the United States of America and may be revised or deleted at any time without prior notice.
Dissemination of this information without the expressed written consent of the Public Affairs Office, Tulsa District U.S. Army Corps of Engineers is strictly prohibited.
These data are gathered electronically and, as presented, have not undergone any form of quality control. These data are not guaranteed to be valid or correct.
Go to home page.
Go to station list.

Upstream stations:

Downstream station:
Previous Day
Next Day
Current Day
    
SHEF ID:       CHWT2     Wichita River nr Charlie, TX
STATION TYPE:  

               PRECIP     STAGE  RIV-FLOW  WTR-TEMP   CONDUCT  BAT-LOAD
                   in        ft       cfs         F   umho/cm      volt
              Ccp-Rev   Ccp-Rev   Ccp-Rev   Ccp-Rev   Ccp-Rev   Ccp-Rev
(US/Central)
01/02 00:00      0.00      4.80        44     31.86      4379     12.65
01/02 01:00      0.00      4.80        44     31.69      4403     12.60
01/02 02:00      0.00      4.78        42     31.62      4429     12.60
01/02 03:00      0.00      4.76        39     31.59      4447     12.60
01/02 04:00      0.00      4.75        38     31.59      4455     12.60
01/02 05:00      0.00      4.74        37     31.59      4457     12.54
01/02 06:00      0.00      4.73        36     31.60      4455     12.54
01/02 07:00      0.00      4.73        36     31.60      4447     12.48
01/02 08:00      0.00      4.72        34     31.62      4439     12.48
01/02 09:00      0.00      4.71        33     31.66      4429     12.77
01/02 10:00      0.00      4.70        32     31.75      4420     13.42
01/02 11:00      0.00      4.71        33     31.91      4419     13.94
01/02 12:00      0.00      4.72        34     32.05      4418     14.12
01/02 13:00      0.00      4.72        34     32.25      4418     14.06
01/02 14:00      0.00      4.73        36     32.36      4412     14.00
01/02 15:00      0.00      4.75        38     32.41      4406     14.00
01/02 16:00      0.00      4.75        38     32.43      4401     14.06
01/02 17:00      0.00      4.76        39     32.36      4397     13.83
01/02 18:00      0.00      4.76        39     32.27      4396     13.18
01/02 19:00      0.00      4.77        40     32.18      4395     12.77
01/02 20:00      0.00      4.79        43     32.02      4395     12.71
01/02 21:00      0.00      4.81        46     31.91      4394     12.65
01/02 22:00      0.00      4.82        47     31.80      4393     12.65
01/02 23:00      0.00      4.82        47     31.71      4392     12.65